Main page
METAR-TAF:

METAR-TAF

Airports :

Mehrabad International Airport

Tehran, Iran

latitude: 35-41N, longitude: 051-21E, elevation: 1204 m

Current weather observation

The report was made 14 minutes ago, at 01:30 UTC
Wind 4 kt from the East
Temperature 24°C
Humidity 22%
Pressure 1013 hPa
Visibility 10 km or more
no clouds below 1500 m and no cumulonimbus

METAR: OIII 200130Z 09004KT CAVOK 24/01 Q1012 A2991

Time: 06:14 (01:44 UTC)

Forecast

The report was made 2 hours and 44 minutes ago, at 23:00 UTC
Forecast valid from 20 at 00 UTC to 21 at 06 UTC
Wind 8 kt from the West/Southwest
Visibility 10 km or more
no clouds below 1500 m and no cumulonimbus
Temporary
from 20 at 06 UTC to 20 at 11 UTC
Wind 16 kt from the South/Southeast

TAF: OIII 192300Z 2000/2106 24004MPS CAVOK TEMPO 2006/2011 15008MPS

Weather observations and forecasts of more than 4000 airports (METAR and TAF reports).

The available stations are represented by yellow and red dots on the map.

Hover mouse over dot to see the name of the station.

Then click to see weather observations and forecasts.

To change the map : click on the green buttons with a black cross to zoom in, on the green button with a dash to zoom out, or on the green arrows for adjacent maps.


METAR-TAF: